sensor_id;sensor_type;location;lat;lon;timestamp;P1;durP1;ratioP1;P2;durP2;ratioP2
9422;SDS011;65863;49.506;10.400;2023-02-01T00:00:33;6.07;;;5.07;;
9422;SDS011;65863;49.506;10.400;2023-02-01T00:03:19;5.67;;;5.10;;
9422;SDS011;65863;49.506;10.400;2023-02-01T00:06:03;6.00;;;5.10;;
9422;SDS011;65863;49.506;10.400;2023-02-01T00:08:47;6.20;;;5.40;;
9422;SDS011;65863;49.506;10.400;2023-02-01T00:11:31;6.07;;;5.47;;
9422;SDS011;65863;49.506;10.400;2023-02-01T00:14:15;6.30;;;5.33;;
9422;SDS011;65863;49.506;10.400;2023-02-01T00:17:00;6.57;;;5.20;;
9422;SDS011;65863;49.506;10.400;2023-02-01T00:19:44;6.37;;;5.40;;
9422;SDS011;65863;49.506;10.400;2023-02-01T00:22:28;7.60;;;6.23;;
9422;SDS011;65863;49.506;10.400;2023-02-01T00:25:12;6.23;;;5.43;;
9422;SDS011;65863;49.506;10.400;2023-02-01T00:27:56;6.43;;;5.43;;
9422;SDS011;65863;49.506;10.400;2023-02-01T00:30:42;6.97;;;5.60;;
9422;SDS011;65863;49.506;10.400;2023-02-01T00:33:26;7.90;;;6.17;;
9422;SDS011;65863;49.506;10.400;2023-02-01T00:36:12;7.23;;;5.93;;
9422;SDS011;65863;49.506;10.400;2023-02-01T00:38:56;10.07;;;6.50;;
9422;SDS011;65863;49.506;10.400;2023-02-01T00:41:41;9.63;;;6.97;;
9422;SDS011;65863;49.506;10.400;2023-02-01T00:44:25;6.93;;;6.00;;
9422;SDS011;65863;49.506;10.400;2023-02-01T00:47:09;9.43;;;6.30;;
9422;SDS011;65863;49.506;10.400;2023-02-01T00:49:53;6.70;;;5.60;;
9422;SDS011;65863;49.506;10.400;2023-02-01T00:52:37;7.00;;;5.30;;
9422;SDS011;65863;49.506;10.400;2023-02-01T00:55:21;5.07;;;4.40;;
9422;SDS011;65863;49.506;10.400;2023-02-01T00:58:04;6.43;;;5.83;;
9422;SDS011;65863;49.506;10.400;2023-02-01T01:00:49;5.77;;;5.17;;
9422;SDS011;65863;49.506;10.400;2023-02-01T01:03:34;6.50;;;4.77;;
9422;SDS011;65863;49.506;10.400;2023-02-01T01:06:25;5.70;;;5.10;;
9422;SDS011;65863;49.506;10.400;2023-02-01T01:09:11;5.90;;;5.00;;
9422;SDS011;65863;49.506;10.400;2023-02-01T01:11:55;5.00;;;4.40;;
9422;SDS011;65863;49.506;10.400;2023-02-01T01:14:39;5.40;;;4.90;;
9422;SDS011;65863;49.506;10.400;2023-02-01T01:17:23;8.03;;;5.00;;
9422;SDS011;65863;49.506;10.400;2023-02-01T01:20:07;5.27;;;4.77;;
9422;SDS011;65863;49.506;10.400;2023-02-01T01:22:52;6.93;;;4.80;;
9422;SDS011;65863;49.506;10.400;2023-02-01T01:25:37;6.83;;;4.80;;
9422;SDS011;65863;49.506;10.400;2023-02-01T01:28:22;4.97;;;4.47;;
9422;SDS011;65863;49.506;10.400;2023-02-01T01:31:10;4.50;;;4.10;;
9422;SDS011;65863;49.506;10.400;2023-02-01T01:33:56;5.50;;;4.77;;
9422;SDS011;65863;49.506;10.400;2023-02-01T01:36:41;6.47;;;4.80;;
9422;SDS011;65863;49.506;10.400;2023-02-01T01:39:25;5.03;;;4.53;;
9422;SDS011;65863;49.506;10.400;2023-02-01T01:42:11;5.23;;;4.73;;
9422;SDS011;65863;49.506;10.400;2023-02-01T01:51:10;6.73;;;5.27;;
9422;SDS011;65863;49.506;10.400;2023-02-01T01:54:09;7.63;;;5.70;;
9422;SDS011;65863;49.506;10.400;2023-02-01T01:56:58;9.17;;;5.97;;
9422;SDS011;65863;49.506;10.400;2023-02-01T01:59:49;8.87;;;6.20;;
9422;SDS011;65863;49.506;10.400;2023-02-01T02:02:40;9.30;;;6.40;;
9422;SDS011;65863;49.506;10.400;2023-02-01T02:05:26;7.00;;;5.90;;
9422;SDS011;65863;49.506;10.400;2023-02-01T02:08:12;9.00;;;6.10;;
9422;SDS011;65863;49.506;10.400;2023-02-01T02:10:56;7.23;;;6.53;;
9422;SDS011;65863;49.506;10.400;2023-02-01T02:13:45;6.77;;;5.83;;
9422;SDS011;65863;49.506;10.400;2023-02-01T02:16:45;8.33;;;5.60;;
9422;SDS011;65863;49.506;10.400;2023-02-01T02:20:14;5.57;;;4.97;;
9422;SDS011;65863;49.506;10.400;2023-02-01T02:35:40;6.20;;;5.60;;
9422;SDS011;65863;49.506;10.400;2023-02-01T02:38:37;7.20;;;5.80;;
9422;SDS011;65863;49.506;10.400;2023-02-01T02:41:42;6.77;;;6.07;;
9422;SDS011;65863;49.506;10.400;2023-02-01T02:51:01;7.20;;;6.50;;
9422;SDS011;65863;49.506;10.400;2023-02-01T02:54:13;6.60;;;5.90;;
9422;SDS011;65863;49.506;10.400;2023-02-01T02:57:22;5.93;;;5.43;;
9422;SDS011;65863;49.506;10.400;2023-02-01T03:00:31;7.77;;;6.13;;
9422;SDS011;65863;49.506;10.400;2023-02-01T03:03:37;7.53;;;6.40;;
9422;SDS011;65863;49.506;10.400;2023-02-01T03:06:40;7.80;;;6.17;;
9422;SDS011;65863;49.506;10.400;2023-02-01T03:12:09;8.07;;;6.20;;
9422;SDS011;65863;49.506;10.400;2023-02-01T03:15:15;8.33;;;6.13;;
9422;SDS011;65863;49.506;10.400;2023-02-01T03:18:03;7.20;;;6.43;;
9422;SDS011;65863;49.506;10.400;2023-02-01T03:20:56;7.03;;;6.33;;
9422;SDS011;65863;49.506;10.400;2023-02-01T03:23:47;7.07;;;5.97;;
9422;SDS011;65863;49.506;10.400;2023-02-01T03:26:34;7.47;;;6.73;;
9422;SDS011;65863;49.506;10.400;2023-02-01T03:29:24;9.80;;;6.83;;
9422;SDS011;65863;49.506;10.400;2023-02-01T03:32:14;7.47;;;6.47;;
9422;SDS011;65863;49.506;10.400;2023-02-01T03:34:59;7.77;;;6.90;;
9422;SDS011;65863;49.506;10.400;2023-02-01T03:37:43;7.57;;;6.87;;
9422;SDS011;65863;49.506;10.400;2023-02-01T03:40:28;7.93;;;7.20;;
9422;SDS011;65863;49.506;10.400;2023-02-01T03:43:17;8.57;;;6.93;;
9422;SDS011;65863;49.506;10.400;2023-02-01T03:46:05;7.00;;;5.90;;
9422;SDS011;65863;49.506;10.400;2023-02-01T03:48:55;9.90;;;5.97;;
9422;SDS011;65863;49.506;10.400;2023-02-01T03:51:40;10.50;;;6.10;;
9422;SDS011;65863;49.506;10.400;2023-02-01T03:54:26;6.57;;;5.60;;
9422;SDS011;65863;49.506;10.400;2023-02-01T03:57:13;7.27;;;5.90;;
9422;SDS011;65863;49.506;10.400;2023-02-01T04:00:08;9.03;;;6.07;;
9422;SDS011;65863;49.506;10.400;2023-02-01T04:02:58;7.07;;;5.87;;
9422;SDS011;65863;49.506;10.400;2023-02-01T04:05:43;7.03;;;6.00;;
9422;SDS011;65863;49.506;10.400;2023-02-01T04:08:27;8.43;;;6.20;;
9422;SDS011;65863;49.506;10.400;2023-02-01T04:11:13;8.23;;;6.10;;
9422;SDS011;65863;49.506;10.400;2023-02-01T04:13:56;6.57;;;5.83;;
9422;SDS011;65863;49.506;10.400;2023-02-01T04:16:41;8.47;;;6.60;;
9422;SDS011;65863;49.506;10.400;2023-02-01T04:19:25;9.97;;;5.80;;
9422;SDS011;65863;49.506;10.400;2023-02-01T04:22:09;6.53;;;5.73;;
9422;SDS011;65863;49.506;10.400;2023-02-01T04:24:53;9.13;;;6.47;;
9422;SDS011;65863;49.506;10.400;2023-02-01T04:27:37;6.87;;;6.07;;
9422;SDS011;65863;49.506;10.400;2023-02-01T04:30:21;6.97;;;6.27;;
9422;SDS011;65863;49.506;10.400;2023-02-01T04:33:05;8.60;;;6.27;;
9422;SDS011;65863;49.506;10.400;2023-02-01T04:35:48;6.80;;;6.10;;
9422;SDS011;65863;49.506;10.400;2023-02-01T04:38:32;6.93;;;5.20;;
9422;SDS011;65863;49.506;10.400;2023-02-01T04:41:16;6.23;;;5.50;;
9422;SDS011;65863;49.506;10.400;2023-02-01T04:44:02;6.00;;;5.40;;
9422;SDS011;65863;49.506;10.400;2023-02-01T04:46:47;6.50;;;5.90;;
9422;SDS011;65863;49.506;10.400;2023-02-01T04:49:31;6.93;;;5.90;;
9422;SDS011;65863;49.506;10.400;2023-02-01T04:52:15;8.43;;;6.37;;
9422;SDS011;65863;49.506;10.400;2023-02-01T04:54:59;9.43;;;5.70;;
9422;SDS011;65863;49.506;10.400;2023-02-01T04:57:44;8.20;;;5.97;;
9422;SDS011;65863;49.506;10.400;2023-02-01T05:00:28;7.40;;;5.50;;
9422;SDS011;65863;49.506;10.400;2023-02-01T05:03:12;7.67;;;6.00;;
9422;SDS011;65863;49.506;10.400;2023-02-01T05:05:57;5.60;;;4.93;;
9422;SDS011;65863;49.506;10.400;2023-02-01T05:08:41;5.53;;;4.63;;
9422;SDS011;65863;49.506;10.400;2023-02-01T05:11:25;4.80;;;3.43;;
9422;SDS011;65863;49.506;10.400;2023-02-01T05:14:28;4.57;;;3.40;;
9422;SDS011;65863;49.506;10.400;2023-02-01T05:17:12;3.83;;;3.50;;
9422;SDS011;65863;49.506;10.400;2023-02-01T05:19:56;5.47;;;3.20;;
9422;SDS011;65863;49.506;10.400;2023-02-01T05:22:41;4.60;;;3.00;;
9422;SDS011;65863;49.506;10.400;2023-02-01T05:25:25;3.73;;;2.60;;
9422;SDS011;65863;49.506;10.400;2023-02-01T05:28:10;4.03;;;3.13;;
9422;SDS011;65863;49.506;10.400;2023-02-01T05:30:54;3.23;;;2.93;;
9422;SDS011;65863;49.506;10.400;2023-02-01T05:33:38;3.13;;;2.90;;
9422;SDS011;65863;49.506;10.400;2023-02-01T05:36:22;2.97;;;2.67;;
9422;SDS011;65863;49.506;10.400;2023-02-01T05:39:06;2.67;;;2.47;;
9422;SDS011;65863;49.506;10.400;2023-02-01T05:41:50;2.43;;;2.23;;
9422;SDS011;65863;49.506;10.400;2023-02-01T05:44:34;2.40;;;2.20;;
9422;SDS011;65863;49.506;10.400;2023-02-01T05:47:18;2.50;;;2.30;;
9422;SDS011;65863;49.506;10.400;2023-02-01T05:50:04;3.22;;;3.00;;
9422;SDS011;65863;49.506;10.400;2023-02-01T05:52:49;2.50;;;2.30;;
9422;SDS011;65863;49.506;10.400;2023-02-01T05:55:33;2.80;;;2.60;;
9422;SDS011;65863;49.506;10.400;2023-02-01T05:58:17;3.10;;;2.80;;
9422;SDS011;65863;49.506;10.400;2023-02-01T06:01:01;3.10;;;2.43;;
9422;SDS011;65863;49.506;10.400;2023-02-01T06:03:46;3.00;;;2.77;;
9422;SDS011;65863;49.506;10.400;2023-02-01T06:06:30;3.33;;;3.00;;
9422;SDS011;65863;49.506;10.400;2023-02-01T06:09:14;3.30;;;3.00;;
9422;SDS011;65863;49.506;10.400;2023-02-01T06:11:58;3.27;;;2.97;;
9422;SDS011;65863;49.506;10.400;2023-02-01T06:14:43;3.47;;;3.13;;
9422;SDS011;65863;49.506;10.400;2023-02-01T06:17:27;2.57;;;2.37;;
9422;SDS011;65863;49.506;10.400;2023-02-01T06:20:11;2.70;;;2.50;;
9422;SDS011;65863;49.506;10.400;2023-02-01T06:22:57;2.83;;;2.63;;
9422;SDS011;65863;49.506;10.400;2023-02-01T06:25:41;3.00;;;2.80;;
9422;SDS011;65863;49.506;10.400;2023-02-01T06:28:25;3.07;;;2.77;;
9422;SDS011;65863;49.506;10.400;2023-02-01T06:31:09;4.30;;;3.20;;
9422;SDS011;65863;49.506;10.400;2023-02-01T06:33:53;3.37;;;3.07;;
9422;SDS011;65863;49.506;10.400;2023-02-01T06:36:37;3.40;;;3.10;;
9422;SDS011;65863;49.506;10.400;2023-02-01T06:39:22;5.13;;;3.80;;
9422;SDS011;65863;49.506;10.400;2023-02-01T06:42:06;4.00;;;3.60;;
9422;SDS011;65863;49.506;10.400;2023-02-01T06:44:50;5.67;;;4.10;;
9422;SDS011;65863;49.506;10.400;2023-02-01T06:47:34;3.93;;;3.53;;
9422;SDS011;65863;49.506;10.400;2023-02-01T06:50:18;6.60;;;3.90;;
9422;SDS011;65863;49.506;10.400;2023-02-01T06:53:02;4.83;;;4.20;;
9422;SDS011;65863;49.506;10.400;2023-02-01T06:55:53;3.70;;;3.40;;
9422;SDS011;65863;49.506;10.400;2023-02-01T06:58:39;4.13;;;3.70;;
9422;SDS011;65863;49.506;10.400;2023-02-01T07:01:23;4.17;;;3.37;;
9422;SDS011;65863;49.506;10.400;2023-02-01T07:04:08;4.20;;;3.40;;
9422;SDS011;65863;49.506;10.400;2023-02-01T07:06:55;4.53;;;3.30;;
9422;SDS011;65863;49.506;10.400;2023-02-01T07:09:38;6.10;;;3.37;;
9422;SDS011;65863;49.506;10.400;2023-02-01T07:12:22;4.07;;;2.87;;
9422;SDS011;65863;49.506;10.400;2023-02-01T07:15:06;2.80;;;2.60;;
9422;SDS011;65863;49.506;10.400;2023-02-01T07:17:53;4.03;;;2.60;;
9422;SDS011;65863;49.506;10.400;2023-02-01T07:20:38;3.40;;;2.80;;
9422;SDS011;65863;49.506;10.400;2023-02-01T07:23:22;2.80;;;2.60;;
9422;SDS011;65863;49.506;10.400;2023-02-01T07:26:07;3.37;;;2.70;;
9422;SDS011;65863;49.506;10.400;2023-02-01T07:28:54;2.87;;;2.57;;
9422;SDS011;65863;49.506;10.400;2023-02-01T07:31:38;3.50;;;2.70;;
9422;SDS011;65863;49.506;10.400;2023-02-01T07:34:22;3.83;;;2.77;;
9422;SDS011;65863;49.506;10.400;2023-02-01T07:37:06;4.20;;;2.63;;
9422;SDS011;65863;49.506;10.400;2023-02-01T07:39:50;3.60;;;2.33;;
9422;SDS011;65863;49.506;10.400;2023-02-01T07:42:35;2.13;;;1.93;;
9422;SDS011;65863;49.506;10.400;2023-02-01T07:45:19;2.83;;;1.90;;
9422;SDS011;65863;49.506;10.400;2023-02-01T07:48:03;2.50;;;2.03;;
9422;SDS011;65863;49.506;10.400;2023-02-01T07:50:48;2.80;;;1.97;;
9422;SDS011;65863;49.506;10.400;2023-02-01T07:53:40;1.80;;;1.70;;
9422;SDS011;65863;49.506;10.400;2023-02-01T07:56:25;9.60;;;2.13;;
9422;SDS011;65863;49.506;10.400;2023-02-01T07:59:08;2.13;;;1.93;;
9422;SDS011;65863;49.506;10.400;2023-02-01T08:01:52;2.20;;;2.00;;
9422;SDS011;65863;49.506;10.400;2023-02-01T08:04:36;3.10;;;2.63;;
9422;SDS011;65863;49.506;10.400;2023-02-01T08:07:20;2.93;;;2.27;;
9422;SDS011;65863;49.506;10.400;2023-02-01T08:10:06;3.37;;;2.47;;
9422;SDS011;65863;49.506;10.400;2023-02-01T08:12:57;2.73;;;2.43;;
9422;SDS011;65863;49.506;10.400;2023-02-01T08:15:43;2.87;;;2.43;;
9422;SDS011;65863;49.506;10.400;2023-02-01T08:18:27;3.07;;;2.57;;
9422;SDS011;65863;49.506;10.400;2023-02-01T08:21:12;3.03;;;2.73;;
9422;SDS011;65863;49.506;10.400;2023-02-01T08:23:58;3.63;;;2.90;;
9422;SDS011;65863;49.506;10.400;2023-02-01T08:26:42;5.37;;;3.57;;
9422;SDS011;65863;49.506;10.400;2023-02-01T08:29:26;4.90;;;3.47;;
9422;SDS011;65863;49.506;10.400;2023-02-01T08:32:10;9.50;;;3.87;;
9422;SDS011;65863;49.506;10.400;2023-02-01T08:34:54;7.53;;;3.70;;
9422;SDS011;65863;49.506;10.400;2023-02-01T08:37:38;6.77;;;4.20;;
9422;SDS011;65863;49.506;10.400;2023-02-01T08:40:22;6.60;;;3.70;;
9422;SDS011;65863;49.506;10.400;2023-02-01T08:43:07;4.40;;;3.40;;
9422;SDS011;65863;49.506;10.400;2023-02-01T08:45:53;7.15;;;4.60;;
9422;SDS011;65863;49.506;10.400;2023-02-01T08:48:38;5.20;;;3.97;;
9422;SDS011;65863;49.506;10.400;2023-02-01T08:51:22;7.53;;;4.80;;
9422;SDS011;65863;49.506;10.400;2023-02-01T08:54:07;11.90;;;4.60;;
9422;SDS011;65863;49.506;10.400;2023-02-01T08:56:51;8.53;;;4.93;;
9422;SDS011;65863;49.506;10.400;2023-02-01T08:59:37;7.37;;;4.83;;
9422;SDS011;65863;49.506;10.400;2023-02-01T09:02:21;5.17;;;4.10;;
9422;SDS011;65863;49.506;10.400;2023-02-01T09:05:05;4.07;;;2.30;;
9422;SDS011;65863;49.506;10.400;2023-02-01T09:07:49;3.73;;;2.00;;
9422;SDS011;65863;49.506;10.400;2023-02-01T09:10:34;4.77;;;2.37;;
9422;SDS011;65863;49.506;10.400;2023-02-01T09:13:18;4.77;;;3.30;;
9422;SDS011;65863;49.506;10.400;2023-02-01T09:16:04;4.03;;;3.20;;
9422;SDS011;65863;49.506;10.400;2023-02-01T09:18:48;6.77;;;3.40;;
9422;SDS011;65863;49.506;10.400;2023-02-01T09:21:32;8.57;;;3.63;;
9422;SDS011;65863;49.506;10.400;2023-02-01T09:24:16;9.57;;;3.77;;
9422;SDS011;65863;49.506;10.400;2023-02-01T09:26:59;5.73;;;3.20;;
9422;SDS011;65863;49.506;10.400;2023-02-01T09:29:43;8.97;;;3.63;;
9422;SDS011;65863;49.506;10.400;2023-02-01T09:32:27;12.00;;;3.30;;
9422;SDS011;65863;49.506;10.400;2023-02-01T09:35:11;5.67;;;3.83;;
9422;SDS011;65863;49.506;10.400;2023-02-01T09:37:56;4.93;;;3.10;;
9422;SDS011;65863;49.506;10.400;2023-02-01T09:40:42;8.20;;;3.63;;
9422;SDS011;65863;49.506;10.400;2023-02-01T09:43:39;10.60;;;4.40;;
9422;SDS011;65863;49.506;10.400;2023-02-01T09:46:32;9.13;;;3.87;;
9422;SDS011;65863;49.506;10.400;2023-02-01T09:49:19;7.83;;;3.90;;
9422;SDS011;65863;49.506;10.400;2023-02-01T09:52:07;8.23;;;3.60;;
9422;SDS011;65863;49.506;10.400;2023-02-01T09:54:58;9.27;;;3.43;;
9422;SDS011;65863;49.506;10.400;2023-02-01T09:57:55;7.53;;;3.13;;
9422;SDS011;65863;49.506;10.400;2023-02-01T10:00:48;12.17;;;3.20;;
9422;SDS011;65863;49.506;10.400;2023-02-01T10:03:35;9.20;;;3.50;;
9422;SDS011;65863;49.506;10.400;2023-02-01T10:13:14;10.90;;;3.20;;
9422;SDS011;65863;49.506;10.400;2023-02-01T10:16:32;10.13;;;3.00;;
9422;SDS011;65863;49.506;10.400;2023-02-01T10:22:40;7.40;;;3.03;;
9422;SDS011;65863;49.506;10.400;2023-02-01T10:25:27;10.63;;;3.20;;
9422;SDS011;65863;49.506;10.400;2023-02-01T10:28:16;7.13;;;2.63;;
9422;SDS011;65863;49.506;10.400;2023-02-01T10:31:01;6.67;;;2.73;;
9422;SDS011;65863;49.506;10.400;2023-02-01T10:33:47;7.17;;;3.20;;
9422;SDS011;65863;49.506;10.400;2023-02-01T10:36:35;7.97;;;2.57;;
9422;SDS011;65863;49.506;10.400;2023-02-01T10:39:24;9.93;;;3.07;;
9422;SDS011;65863;49.506;10.400;2023-02-01T10:42:08;4.43;;;2.30;;
9422;SDS011;65863;49.506;10.400;2023-02-01T10:44:52;7.03;;;2.97;;
9422;SDS011;65863;49.506;10.400;2023-02-01T10:47:40;8.43;;;2.93;;
9422;SDS011;65863;49.506;10.400;2023-02-01T10:53:50;5.57;;;2.50;;
9422;SDS011;65863;49.506;10.400;2023-02-01T10:56:40;5.60;;;2.40;;
9422;SDS011;65863;49.506;10.400;2023-02-01T10:59:29;9.40;;;2.63;;
9422;SDS011;65863;49.506;10.400;2023-02-01T11:02:29;8.70;;;2.90;;
9422;SDS011;65863;49.506;10.400;2023-02-01T11:05:18;5.20;;;2.47;;
9422;SDS011;65863;49.506;10.400;2023-02-01T11:08:12;7.67;;;3.30;;
9422;SDS011;65863;49.506;10.400;2023-02-01T11:11:01;4.87;;;3.13;;
9422;SDS011;65863;49.506;10.400;2023-02-01T11:13:59;8.67;;;3.43;;
9422;SDS011;65863;49.506;10.400;2023-02-01T11:16:55;6.07;;;2.80;;
9422;SDS011;65863;49.506;10.400;2023-02-01T11:19:45;10.80;;;3.10;;
9422;SDS011;65863;49.506;10.400;2023-02-01T11:22:31;7.80;;;2.73;;
9422;SDS011;65863;49.506;10.400;2023-02-01T11:25:16;16.97;;;3.10;;
9422;SDS011;65863;49.506;10.400;2023-02-01T11:28:01;8.03;;;2.37;;
9422;SDS011;65863;49.506;10.400;2023-02-01T11:30:45;8.63;;;3.07;;
9422;SDS011;65863;49.506;10.400;2023-02-01T11:33:32;5.90;;;2.57;;
9422;SDS011;65863;49.506;10.400;2023-02-01T11:36:20;10.30;;;2.97;;
9422;SDS011;65863;49.506;10.400;2023-02-01T11:44:48;7.07;;;2.83;;
9422;SDS011;65863;49.506;10.400;2023-02-01T11:47:38;13.27;;;2.73;;
9422;SDS011;65863;49.506;10.400;2023-02-01T12:02:19;8.30;;;2.80;;
9422;SDS011;65863;49.506;10.400;2023-02-01T12:05:28;9.03;;;2.57;;
9422;SDS011;65863;49.506;10.400;2023-02-01T12:08:54;9.77;;;2.60;;
9422;SDS011;65863;49.506;10.400;2023-02-01T12:12:39;7.57;;;2.57;;
9422;SDS011;65863;49.506;10.400;2023-02-01T12:24:07;12.80;;;3.23;;
9422;SDS011;65863;49.506;10.400;2023-02-01T12:36:40;7.83;;;2.97;;
9422;SDS011;65863;49.506;10.400;2023-02-01T12:42:46;6.83;;;2.70;;
9422;SDS011;65863;49.506;10.400;2023-02-01T12:45:44;10.23;;;2.70;;
9422;SDS011;65863;49.506;10.400;2023-02-01T12:48:35;9.25;;;3.30;;
9422;SDS011;65863;49.506;10.400;2023-02-01T12:51:29;7.60;;;3.00;;
9422;SDS011;65863;49.506;10.400;2023-02-01T12:54:30;8.07;;;2.73;;
9422;SDS011;65863;49.506;10.400;2023-02-01T12:57:28;8.20;;;2.87;;
9422;SDS011;65863;49.506;10.400;2023-02-01T13:00:22;5.80;;;2.20;;
9422;SDS011;65863;49.506;10.400;2023-02-01T13:03:13;7.30;;;2.30;;
9422;SDS011;65863;49.506;10.400;2023-02-01T13:06:18;11.43;;;3.00;;
9422;SDS011;65863;49.506;10.400;2023-02-01T13:09:14;8.10;;;2.97;;
9422;SDS011;65863;49.506;10.400;2023-02-01T13:12:06;11.23;;;2.77;;
9422;SDS011;65863;49.506;10.400;2023-02-01T13:15:05;10.03;;;3.27;;
9422;SDS011;65863;49.506;10.400;2023-02-01T13:17:59;9.47;;;2.63;;
9422;SDS011;65863;49.506;10.400;2023-02-01T13:23:39;6.83;;;2.40;;
9422;SDS011;65863;49.506;10.400;2023-02-01T13:26:25;12.37;;;2.70;;
9422;SDS011;65863;49.506;10.400;2023-02-01T13:29:09;13.23;;;2.57;;
9422;SDS011;65863;49.506;10.400;2023-02-01T13:31:57;11.13;;;2.77;;
9422;SDS011;65863;49.506;10.400;2023-02-01T13:41:25;9.73;;;2.67;;
9422;SDS011;65863;49.506;10.400;2023-02-01T13:44:15;10.30;;;2.90;;
9422;SDS011;65863;49.506;10.400;2023-02-01T13:47:22;5.90;;;2.33;;
9422;SDS011;65863;49.506;10.400;2023-02-01T13:53:03;8.10;;;2.23;;
9422;SDS011;65863;49.506;10.400;2023-02-01T13:56:39;13.20;;;2.77;;
9422;SDS011;65863;49.506;10.400;2023-02-01T14:10:55;6.20;;;2.03;;
9422;SDS011;65863;49.506;10.400;2023-02-01T14:13:42;5.33;;;2.13;;
9422;SDS011;65863;49.506;10.400;2023-02-01T14:16:28;16.57;;;3.03;;
9422;SDS011;65863;49.506;10.400;2023-02-01T14:25:14;6.17;;;2.30;;
9422;SDS011;65863;49.506;10.400;2023-02-01T14:28:01;11.07;;;3.27;;
9422;SDS011;65863;49.506;10.400;2023-02-01T14:30:56;12.03;;;3.00;;
9422;SDS011;65863;49.506;10.400;2023-02-01T14:33:41;13.17;;;3.37;;
9422;SDS011;65863;49.506;10.400;2023-02-01T14:36:26;8.87;;;2.77;;
9422;SDS011;65863;49.506;10.400;2023-02-01T14:39:27;11.10;;;3.00;;
9422;SDS011;65863;49.506;10.400;2023-02-01T14:50:49;9.97;;;2.57;;
9422;SDS011;65863;49.506;10.400;2023-02-01T14:53:35;9.73;;;2.40;;
9422;SDS011;65863;49.506;10.400;2023-02-01T14:56:20;9.87;;;2.63;;
9422;SDS011;65863;49.506;10.400;2023-02-01T14:59:13;12.47;;;2.47;;
9422;SDS011;65863;49.506;10.400;2023-02-01T15:02:00;15.00;;;3.37;;
9422;SDS011;65863;49.506;10.400;2023-02-01T15:04:44;10.23;;;2.60;;
9422;SDS011;65863;49.506;10.400;2023-02-01T15:07:28;10.80;;;3.42;;
9422;SDS011;65863;49.506;10.400;2023-02-01T15:10:13;6.47;;;2.37;;
9422;SDS011;65863;49.506;10.400;2023-02-01T15:12:57;15.30;;;7.67;;
9422;SDS011;65863;49.506;10.400;2023-02-01T15:15:42;8.53;;;2.80;;
9422;SDS011;65863;49.506;10.400;2023-02-01T15:18:26;5.20;;;2.87;;
9422;SDS011;65863;49.506;10.400;2023-02-01T15:21:20;8.13;;;3.23;;
9422;SDS011;65863;49.506;10.400;2023-02-01T15:24:09;8.23;;;2.27;;
9422;SDS011;65863;49.506;10.400;2023-02-01T15:27:02;11.53;;;3.30;;
9422;SDS011;65863;49.506;10.400;2023-02-01T15:29:49;11.40;;;2.77;;
9422;SDS011;65863;49.506;10.400;2023-02-01T15:32:34;9.40;;;3.43;;
9422;SDS011;65863;49.506;10.400;2023-02-01T15:35:32;12.33;;;2.30;;
9422;SDS011;65863;49.506;10.400;2023-02-01T15:38:25;11.43;;;2.80;;
9422;SDS011;65863;49.506;10.400;2023-02-01T15:41:16;8.47;;;2.53;;
9422;SDS011;65863;49.506;10.400;2023-02-01T15:46:48;7.17;;;2.80;;
9422;SDS011;65863;49.506;10.400;2023-02-01T15:49:37;9.70;;;2.77;;
9422;SDS011;65863;49.506;10.400;2023-02-01T15:52:25;7.50;;;3.03;;
9422;SDS011;65863;49.506;10.400;2023-02-01T15:55:26;10.13;;;3.57;;
9422;SDS011;65863;49.506;10.400;2023-02-01T15:58:20;9.67;;;3.77;;
9422;SDS011;65863;49.506;10.400;2023-02-01T16:01:05;15.87;;;5.07;;
9422;SDS011;65863;49.506;10.400;2023-02-01T16:04:02;11.87;;;3.57;;
9422;SDS011;65863;49.506;10.400;2023-02-01T16:07:21;10.43;;;3.03;;
9422;SDS011;65863;49.506;10.400;2023-02-01T16:10:20;9.75;;;2.60;;
9422;SDS011;65863;49.506;10.400;2023-02-01T16:13:09;7.37;;;2.10;;
9422;SDS011;65863;49.506;10.400;2023-02-01T16:15:53;8.60;;;2.60;;
9422;SDS011;65863;49.506;10.400;2023-02-01T16:18:37;7.60;;;2.70;;
9422;SDS011;65863;49.506;10.400;2023-02-01T16:21:21;10.87;;;2.90;;
9422;SDS011;65863;49.506;10.400;2023-02-01T16:24:06;14.77;;;3.57;;
9422;SDS011;65863;49.506;10.400;2023-02-01T16:26:50;10.03;;;2.90;;
9422;SDS011;65863;49.506;10.400;2023-02-01T16:29:34;9.77;;;2.50;;
9422;SDS011;65863;49.506;10.400;2023-02-01T16:32:19;8.63;;;3.37;;
9422;SDS011;65863;49.506;10.400;2023-02-01T16:35:05;7.33;;;2.53;;
9422;SDS011;65863;49.506;10.400;2023-02-01T16:38:14;8.60;;;2.47;;
9422;SDS011;65863;49.506;10.400;2023-02-01T16:41:02;7.77;;;2.03;;
9422;SDS011;65863;49.506;10.400;2023-02-01T16:43:49;12.87;;;2.80;;
9422;SDS011;65863;49.506;10.400;2023-02-01T16:46:35;14.00;;;2.43;;
9422;SDS011;65863;49.506;10.400;2023-02-01T16:49:24;8.97;;;2.33;;
9422;SDS011;65863;49.506;10.400;2023-02-01T16:52:17;10.17;;;3.20;;
9422;SDS011;65863;49.506;10.400;2023-02-01T16:55:07;7.43;;;2.83;;
9422;SDS011;65863;49.506;10.400;2023-02-01T16:57:56;13.13;;;3.63;;
9422;SDS011;65863;49.506;10.400;2023-02-01T17:00:40;5.13;;;2.20;;
9422;SDS011;65863;49.506;10.400;2023-02-01T17:03:25;5.13;;;2.23;;
9422;SDS011;65863;49.506;10.400;2023-02-01T17:06:09;5.23;;;2.10;;
9422;SDS011;65863;49.506;10.400;2023-02-01T17:08:55;10.37;;;2.50;;
9422;SDS011;65863;49.506;10.400;2023-02-01T17:11:44;7.13;;;2.63;;
9422;SDS011;65863;49.506;10.400;2023-02-01T17:14:29;7.50;;;1.87;;
9422;SDS011;65863;49.506;10.400;2023-02-01T17:17:16;12.13;;;2.63;;
9422;SDS011;65863;49.506;10.400;2023-02-01T17:20:01;12.50;;;2.40;;
9422;SDS011;65863;49.506;10.400;2023-02-01T17:22:47;9.33;;;2.37;;
9422;SDS011;65863;49.506;10.400;2023-02-01T17:25:32;7.80;;;2.60;;
9422;SDS011;65863;49.506;10.400;2023-02-01T17:28:17;8.07;;;2.33;;
9422;SDS011;65863;49.506;10.400;2023-02-01T17:31:01;5.53;;;2.30;;
9422;SDS011;65863;49.506;10.400;2023-02-01T17:33:46;7.17;;;2.67;;
9422;SDS011;65863;49.506;10.400;2023-02-01T17:36:30;9.43;;;2.27;;
9422;SDS011;65863;49.506;10.400;2023-02-01T17:39:14;6.33;;;2.83;;
9422;SDS011;65863;49.506;10.400;2023-02-01T17:42:19;9.90;;;2.60;;
9422;SDS011;65863;49.506;10.400;2023-02-01T17:48:06;9.57;;;2.47;;
9422;SDS011;65863;49.506;10.400;2023-02-01T17:50:52;4.40;;;2.00;;
9422;SDS011;65863;49.506;10.400;2023-02-01T17:53:41;8.57;;;2.90;;
9422;SDS011;65863;49.506;10.400;2023-02-01T17:56:26;9.43;;;2.50;;
9422;SDS011;65863;49.506;10.400;2023-02-01T17:59:11;9.23;;;2.33;;
9422;SDS011;65863;49.506;10.400;2023-02-01T18:01:55;9.60;;;2.13;;
9422;SDS011;65863;49.506;10.400;2023-02-01T18:04:43;7.83;;;2.73;;
9422;SDS011;65863;49.506;10.400;2023-02-01T18:07:27;10.43;;;2.83;;
9422;SDS011;65863;49.506;10.400;2023-02-01T18:10:11;10.93;;;2.93;;
9422;SDS011;65863;49.506;10.400;2023-02-01T18:12:55;7.57;;;2.47;;
9422;SDS011;65863;49.506;10.400;2023-02-01T18:15:41;7.63;;;2.40;;
9422;SDS011;65863;49.506;10.400;2023-02-01T18:18:25;9.77;;;2.77;;
9422;SDS011;65863;49.506;10.400;2023-02-01T18:21:09;8.47;;;2.70;;
9422;SDS011;65863;49.506;10.400;2023-02-01T18:23:53;10.87;;;2.83;;
9422;SDS011;65863;49.506;10.400;2023-02-01T18:26:37;9.27;;;2.97;;
9422;SDS011;65863;49.506;10.400;2023-02-01T18:29:21;10.57;;;2.90;;
9422;SDS011;65863;49.506;10.400;2023-02-01T18:32:05;9.30;;;2.50;;
9422;SDS011;65863;49.506;10.400;2023-02-01T18:34:49;5.93;;;2.67;;
9422;SDS011;65863;49.506;10.400;2023-02-01T18:37:33;10.40;;;3.10;;
9422;SDS011;65863;49.506;10.400;2023-02-01T18:40:19;10.97;;;3.10;;
9422;SDS011;65863;49.506;10.400;2023-02-01T18:43:04;15.03;;;3.53;;
9422;SDS011;65863;49.506;10.400;2023-02-01T18:45:49;14.30;;;2.93;;
9422;SDS011;65863;49.506;10.400;2023-02-01T18:48:32;9.63;;;2.90;;
9422;SDS011;65863;49.506;10.400;2023-02-01T18:51:17;10.50;;;2.80;;
9422;SDS011;65863;49.506;10.400;2023-02-01T18:54:03;11.20;;;2.73;;